createdAt,value
2019-01-18T00:16:51.067Z,77.7
2019-01-18T00:45:27.808Z,76.98
2019-01-18T01:14:06.653Z,76.85
2019-01-18T01:42:46.704Z,76.19
2019-01-18T02:11:24.255Z,76.24
2019-01-18T02:40:00.938Z,77.32
2019-01-18T03:08:37.823Z,77.68
2019-01-18T03:37:11.941Z,77.74
2019-01-18T04:05:52.273Z,77.77
2019-01-18T04:34:29.106Z,77.44
2019-01-18T05:03:04.629Z,77.45
2019-01-18T05:31:38.319Z,77.42
2019-01-18T06:00:15.367Z,77.32
2019-01-18T06:28:51.157Z,76.03
2019-01-18T06:57:25.949Z,75.29
2019-01-18T07:26:01.199Z,75.2
2019-01-18T07:54:37.705Z,74.83
2019-01-18T08:23:21.689Z,74.31
2019-01-18T08:51:57.443Z,72.94
2019-01-18T09:20:36.251Z,72.12
2019-01-18T09:49:16.751Z,71.46
2019-01-18T10:18:01.080Z,69.61
2019-01-18T10:46:27.619Z,69.15
2019-01-18T11:15:05.757Z,69.17
2019-01-18T11:43:40.560Z,67.27
2019-01-18T12:12:21.069Z,66.13
2019-01-18T12:40:55.509Z,64
2019-01-18T13:09:34.227Z,62.72
2019-01-18T13:38:12.579Z,61.94
2019-01-18T14:06:48.931Z,61.86
2019-01-18T14:35:25.070Z,63.07
2019-01-18T15:04:02.034Z,64.12
2019-01-18T15:32:37.818Z,65.21
2019-01-18T16:01:07.745Z,67.1
2019-01-18T16:29:42.234Z,69.65
2019-01-18T16:58:25.061Z,72.33
2019-01-18T17:26:33.693Z,74.09
2019-01-18T17:55:08.925Z,74.36
2019-01-18T18:23:37.990Z,74.36
2019-01-18T18:52:10.887Z,76.51
2019-01-18T19:20:48.985Z,76.88
2019-01-18T19:49:25.327Z,77.32
2019-01-18T20:18:01.884Z,78.32
2019-01-18T20:46:32.754Z,79.52
2019-01-18T21:14:51.185Z,79.84
2019-01-18T21:43:23.902Z,80.53
2019-01-18T22:12:01.287Z,80.8
2019-01-18T22:40:36.550Z,81.99
2019-01-18T23:09:13.523Z,82.7
2019-01-18T23:37:50.667Z,82.54
